Aérodrome :
LOGIN :

S'inscrire | Disclaimer

   EN    FR    IT 

 










Légende :    VFR   VFR Marginal   IFR   IFR Intensif   IFR Très Intensif
Visi : 
Plafond : 
>= 8 km
>= 3000ft
5 à 8 km
1000 à 3000 ft
1500m à 5 km
500 à 1000 ft
800 à 1500m
200 à 500 ft
< 800m
< 200 ft
Symboles :   Orages  Brouillard  Fortes neiges  Fortes précipitations  Vent > 20 kt
SIGMETs :   Divers  Orages  Givrage  Turbulence  Onde Orograph.  Cendres Volcan.







- Altitude de l'aérodrome : 90 ft
- Code IATA : NTE
- Voir les cartes d'approche


LFRS - Nantes

DERNIER METAR :
  • 182300Z AUTO 18005KT 9999 FEW030 17/16 Q1018 TEMPO BKN012

METARs EXPIRÉS :
  • 182230Z AUTO 22005KT 9999 BKN017 BKN026 BKN041 17/16 Q1018 TEMPO BKN012
  • 182200Z AUTO 19004KT 9999 FEW031 OVC041 17/16 Q1018 TEMPO BKN012
  • 182130Z AUTO 22004KT 9999 BKN042 17/15 Q1018 TEMPO BKN012
  • 182100Z AUTO 21005KT 9999 BKN042 17/16 Q1018 TEMPO BKN012
  • 182030Z AUTO 22005KT CAVOK 17/15 Q1018 TEMPO BKN012

TAF TAF LFRS
Valide du 19 à 00h jusqu'au 20 à 06h UTC


182300Z 1900/2006 21007KT 9999 SCT013 SCT040
PROB30
TEMPO 1900/1906 BKN012
TEMPO 1920/2006 BKN012
ATIS : +33 2 40 05 12 74
Pas de NOTAMs connus pour ce terrain.



MET'MAP, la Météo Aéronautique d'un coup d'oeil ! - Copyright ORBIFLY Décembre 2007 - Disclaimer

ORBIFLY MET'MAP TEAM :

Programmation & Développement : Alexandra Zaïnal
Conception & Développement : Baudouin d'Aumeries
Co-Programmation & Développement : Marc-Olivier Méhu
Soutien technique & logistique : Manuel Goepfert

Contact : metmap@orbifly.com




SOURCES & CREDITS :

   NOAA